7TN4 weather

Pegasus Field
Oakland, Tennessee, United States

Public forecast

Using degrees Fahrenheit for public forecast. Weather courtesy of forecast.io.

METAR (pilot weather report)

Closest report is Olive Branch Airport, 16.0 nm (29.7 km) SW. Retrieved 2019/06/15 20:50 UTC (12 minutes ago):

KOLV 152050Z 21011KT 10SM SCT041 BKN055 BKN130 30/22 A2994

TAF (pilot weather forecast)

Closest forecast is Memphis International Airport, 21.8 nm (40.4 km) WSW. Retrieved 2019/06/15 18:36 UTC (2 hours ago):

TAF KMEM 151734Z 1518/1624 20012G23KT P6SM SCT045 BKN150 FM160100 19011KT P6SM FEW050 OVC200 FM161100 21012KT P6SM BKN030 FM161500 21012G18KT P6SM BKN035 OVC150 FM162000 21011KT P6SM VCTS BKN045CB